sensor_id;sensor_type;location;lat;lon;timestamp;P1;durP1;ratioP1;P2;durP2;ratioP2
60641;SDS011;46837;52.446;-1.930;2022-11-04T00:00:07;15.00;;;7.38;;
60641;SDS011;46837;52.446;-1.930;2022-11-04T00:01:07;17.48;;;7.76;;
60641;SDS011;46837;52.446;-1.930;2022-11-04T00:02:07;15.14;;;7.22;;
60641;SDS011;46837;52.446;-1.930;2022-11-04T00:03:07;13.08;;;7.32;;
60641;SDS011;46837;52.446;-1.930;2022-11-04T00:04:07;20.32;;;7.52;;
60641;SDS011;46837;52.446;-1.930;2022-11-04T00:05:07;19.08;;;8.10;;
60641;SDS011;46837;52.446;-1.930;2022-11-04T00:06:07;17.00;;;6.82;;
60641;SDS011;46837;52.446;-1.930;2022-11-04T00:07:11;15.32;;;7.58;;
60641;SDS011;46837;52.446;-1.930;2022-11-04T00:08:11;17.92;;;8.72;;
60641;SDS011;46837;52.446;-1.930;2022-11-04T00:09:08;13.02;;;7.54;;
60641;SDS011;46837;52.446;-1.930;2022-11-04T00:10:07;16.18;;;7.92;;
60641;SDS011;46837;52.446;-1.930;2022-11-04T00:11:11;19.56;;;7.98;;
60641;SDS011;46837;52.446;-1.930;2022-11-04T00:12:11;17.38;;;8.68;;
60641;SDS011;46837;52.446;-1.930;2022-11-04T00:13:07;14.56;;;8.36;;
60641;SDS011;46837;52.446;-1.930;2022-11-04T00:14:07;18.10;;;9.30;;
60641;SDS011;46837;52.446;-1.930;2022-11-04T00:15:11;15.92;;;8.52;;
60641;SDS011;46837;52.446;-1.930;2022-11-04T00:16:11;14.38;;;8.68;;
60641;SDS011;46837;52.446;-1.930;2022-11-04T00:17:11;18.74;;;8.16;;
60641;SDS011;46837;52.446;-1.930;2022-11-04T00:18:07;16.34;;;9.86;;
60641;SDS011;46837;52.446;-1.930;2022-11-04T00:19:07;21.76;;;9.38;;
60641;SDS011;46837;52.446;-1.930;2022-11-04T00:20:11;18.78;;;9.62;;
60641;SDS011;46837;52.446;-1.930;2022-11-04T00:21:11;23.76;;;10.60;;
60641;SDS011;46837;52.446;-1.930;2022-11-04T00:22:11;19.50;;;10.38;;
60641;SDS011;46837;52.446;-1.930;2022-11-04T00:23:11;17.92;;;9.48;;
60641;SDS011;46837;52.446;-1.930;2022-11-04T00:24:11;18.76;;;10.58;;
60641;SDS011;46837;52.446;-1.930;2022-11-04T00:25:11;24.28;;;10.24;;
60641;SDS011;46837;52.446;-1.930;2022-11-04T00:26:11;23.92;;;11.72;;
60641;SDS011;46837;52.446;-1.930;2022-11-04T00:27:11;18.56;;;10.62;;
60641;SDS011;46837;52.446;-1.930;2022-11-04T00:28:12;15.84;;;9.48;;
60641;SDS011;46837;52.446;-1.930;2022-11-04T00:29:07;22.14;;;11.64;;
60641;SDS011;46837;52.446;-1.930;2022-11-04T00:30:08;18.48;;;10.32;;
60641;SDS011;46837;52.446;-1.930;2022-11-04T00:31:11;22.52;;;10.92;;
60641;SDS011;46837;52.446;-1.930;2022-11-04T00:32:11;17.42;;;11.04;;
60641;SDS011;46837;52.446;-1.930;2022-11-04T00:33:11;18.84;;;9.92;;
60641;SDS011;46837;52.446;-1.930;2022-11-04T00:34:07;22.80;;;10.68;;
60641;SDS011;46837;52.446;-1.930;2022-11-04T00:35:07;19.30;;;10.94;;
60641;SDS011;46837;52.446;-1.930;2022-11-04T00:36:07;19.72;;;12.02;;
60641;SDS011;46837;52.446;-1.930;2022-11-04T00:37:07;23.18;;;10.44;;
60641;SDS011;46837;52.446;-1.930;2022-11-04T00:38:07;21.64;;;10.86;;
60641;SDS011;46837;52.446;-1.930;2022-11-04T00:39:07;18.20;;;11.80;;
60641;SDS011;46837;52.446;-1.930;2022-11-04T00:40:07;24.68;;;11.66;;
60641;SDS011;46837;52.446;-1.930;2022-11-04T00:41:11;17.64;;;10.98;;
60641;SDS011;46837;52.446;-1.930;2022-11-04T00:42:07;19.68;;;9.94;;
60641;SDS011;46837;52.446;-1.930;2022-11-04T00:43:07;20.24;;;11.18;;
60641;SDS011;46837;52.446;-1.930;2022-11-04T00:44:07;18.98;;;9.38;;
60641;SDS011;46837;52.446;-1.930;2022-11-04T00:45:07;22.60;;;8.70;;
60641;SDS011;46837;52.446;-1.930;2022-11-04T00:46:07;23.32;;;11.04;;
60641;SDS011;46837;52.446;-1.930;2022-11-04T00:47:07;26.08;;;9.90;;
60641;SDS011;46837;52.446;-1.930;2022-11-04T00:48:07;19.70;;;10.04;;
60641;SDS011;46837;52.446;-1.930;2022-11-04T00:49:07;19.36;;;10.10;;
60641;SDS011;46837;52.446;-1.930;2022-11-04T00:50:07;18.90;;;9.58;;
60641;SDS011;46837;52.446;-1.930;2022-11-04T00:51:07;20.04;;;11.40;;
60641;SDS011;46837;52.446;-1.930;2022-11-04T00:52:07;20.22;;;9.08;;
60641;SDS011;46837;52.446;-1.930;2022-11-04T00:53:07;18.52;;;10.06;;
60641;SDS011;46837;52.446;-1.930;2022-11-04T00:54:07;17.38;;;9.30;;
60641;SDS011;46837;52.446;-1.930;2022-11-04T00:55:07;14.70;;;8.66;;
60641;SDS011;46837;52.446;-1.930;2022-11-04T00:56:07;18.32;;;8.54;;
60641;SDS011;46837;52.446;-1.930;2022-11-04T00:57:12;18.52;;;9.80;;
60641;SDS011;46837;52.446;-1.930;2022-11-04T00:58:07;15.56;;;8.76;;
60641;SDS011;46837;52.446;-1.930;2022-11-04T00:59:07;21.92;;;10.56;;
60641;SDS011;46837;52.446;-1.930;2022-11-04T01:00:07;16.90;;;8.90;;
60641;SDS011;46837;52.446;-1.930;2022-11-04T01:01:10;17.02;;;10.04;;
60641;SDS011;46837;52.446;-1.930;2022-11-04T01:02:07;25.14;;;9.58;;
60641;SDS011;46837;52.446;-1.930;2022-11-04T01:03:07;24.68;;;9.20;;
60641;SDS011;46837;52.446;-1.930;2022-11-04T01:04:07;18.88;;;9.28;;
60641;SDS011;46837;52.446;-1.930;2022-11-04T01:05:07;16.30;;;8.66;;
60641;SDS011;46837;52.446;-1.930;2022-11-04T01:06:07;18.78;;;9.64;;
60641;SDS011;46837;52.446;-1.930;2022-11-04T01:07:07;17.12;;;8.16;;
60641;SDS011;46837;52.446;-1.930;2022-11-04T01:08:07;20.18;;;9.18;;
60641;SDS011;46837;52.446;-1.930;2022-11-04T01:09:07;21.40;;;9.38;;
60641;SDS011;46837;52.446;-1.930;2022-11-04T01:10:07;26.36;;;9.90;;
60641;SDS011;46837;52.446;-1.930;2022-11-04T01:11:07;23.62;;;9.74;;
60641;SDS011;46837;52.446;-1.930;2022-11-04T01:12:07;21.30;;;9.76;;
60641;SDS011;46837;52.446;-1.930;2022-11-04T01:13:07;45.70;;;10.92;;
60641;SDS011;46837;52.446;-1.930;2022-11-04T01:14:07;19.50;;;9.32;;
60641;SDS011;46837;52.446;-1.930;2022-11-04T01:15:07;22.98;;;9.08;;
60641;SDS011;46837;52.446;-1.930;2022-11-04T01:16:07;26.50;;;9.74;;
60641;SDS011;46837;52.446;-1.930;2022-11-04T01:17:07;22.86;;;8.38;;
60641;SDS011;46837;52.446;-1.930;2022-11-04T01:18:07;28.16;;;9.24;;
60641;SDS011;46837;52.446;-1.930;2022-11-04T01:19:07;27.80;;;10.84;;
60641;SDS011;46837;52.446;-1.930;2022-11-04T01:20:07;25.12;;;9.76;;
60641;SDS011;46837;52.446;-1.930;2022-11-04T01:21:07;19.92;;;9.60;;
60641;SDS011;46837;52.446;-1.930;2022-11-04T01:22:07;21.36;;;9.96;;
60641;SDS011;46837;52.446;-1.930;2022-11-04T01:23:07;24.62;;;10.78;;
60641;SDS011;46837;52.446;-1.930;2022-11-04T01:24:07;23.82;;;9.66;;
60641;SDS011;46837;52.446;-1.930;2022-11-04T01:25:07;23.96;;;10.26;;
60641;SDS011;46837;52.446;-1.930;2022-11-04T01:26:07;13.10;;;7.82;;
60641;SDS011;46837;52.446;-1.930;2022-11-04T01:27:07;18.70;;;8.90;;
60641;SDS011;46837;52.446;-1.930;2022-11-04T01:28:07;20.20;;;9.78;;
60641;SDS011;46837;52.446;-1.930;2022-11-04T01:29:07;31.26;;;11.06;;
60641;SDS011;46837;52.446;-1.930;2022-11-04T01:30:07;22.98;;;8.72;;
60641;SDS011;46837;52.446;-1.930;2022-11-04T01:31:07;16.64;;;8.14;;
60641;SDS011;46837;52.446;-1.930;2022-11-04T01:32:07;17.44;;;9.18;;
60641;SDS011;46837;52.446;-1.930;2022-11-04T01:33:07;17.56;;;8.44;;
60641;SDS011;46837;52.446;-1.930;2022-11-04T01:34:07;25.06;;;9.06;;
60641;SDS011;46837;52.446;-1.930;2022-11-04T01:35:07;21.98;;;9.58;;
60641;SDS011;46837;52.446;-1.930;2022-11-04T01:36:07;20.80;;;9.08;;
60641;SDS011;46837;52.446;-1.930;2022-11-04T01:37:07;17.56;;;8.20;;
60641;SDS011;46837;52.446;-1.930;2022-11-04T01:38:07;15.80;;;7.80;;
60641;SDS011;46837;52.446;-1.930;2022-11-04T01:39:07;19.40;;;9.00;;
60641;SDS011;46837;52.446;-1.930;2022-11-04T01:40:07;23.08;;;8.64;;
60641;SDS011;46837;52.446;-1.930;2022-11-04T01:41:07;20.12;;;9.20;;
60641;SDS011;46837;52.446;-1.930;2022-11-04T01:42:08;27.02;;;8.44;;
60641;SDS011;46837;52.446;-1.930;2022-11-04T01:45:11;22.34;;;9.46;;
60641;SDS011;46837;52.446;-1.930;2022-11-04T01:46:07;18.98;;;8.30;;
60641;SDS011;46837;52.446;-1.930;2022-11-04T01:47:11;18.72;;;7.96;;
60641;SDS011;46837;52.446;-1.930;2022-11-04T01:48:08;23.70;;;8.48;;
60641;SDS011;46837;52.446;-1.930;2022-11-04T01:51:07;26.04;;;8.06;;
60641;SDS011;46837;52.446;-1.930;2022-11-04T01:52:08;22.64;;;7.60;;
60641;SDS011;46837;52.446;-1.930;2022-11-04T01:54:07;18.94;;;8.02;;
60641;SDS011;46837;52.446;-1.930;2022-11-04T01:55:09;18.10;;;7.32;;
60641;SDS011;46837;52.446;-1.930;2022-11-04T01:56:11;18.18;;;7.34;;
60641;SDS011;46837;52.446;-1.930;2022-11-04T01:57:07;15.98;;;8.08;;
60641;SDS011;46837;52.446;-1.930;2022-11-04T01:58:08;17.76;;;7.50;;
60641;SDS011;46837;52.446;-1.930;2022-11-04T01:59:08;19.70;;;7.06;;
60641;SDS011;46837;52.446;-1.930;2022-11-04T02:00:07;23.34;;;7.82;;
60641;SDS011;46837;52.446;-1.930;2022-11-04T02:01:07;21.82;;;6.06;;
60641;SDS011;46837;52.446;-1.930;2022-11-04T02:02:07;24.24;;;7.76;;
60641;SDS011;46837;52.446;-1.930;2022-11-04T02:03:07;21.48;;;7.38;;
60641;SDS011;46837;52.446;-1.930;2022-11-04T02:04:11;13.26;;;5.84;;
60641;SDS011;46837;52.446;-1.930;2022-11-04T02:05:07;21.16;;;7.40;;
60641;SDS011;46837;52.446;-1.930;2022-11-04T02:06:07;14.56;;;5.74;;
60641;SDS011;46837;52.446;-1.930;2022-11-04T02:07:07;20.90;;;6.52;;
60641;SDS011;46837;52.446;-1.930;2022-11-04T02:08:07;19.68;;;6.02;;
60641;SDS011;46837;52.446;-1.930;2022-11-04T02:09:07;15.00;;;6.36;;
60641;SDS011;46837;52.446;-1.930;2022-11-04T02:10:07;19.20;;;6.94;;
60641;SDS011;46837;52.446;-1.930;2022-11-04T02:11:07;22.64;;;8.02;;
60641;SDS011;46837;52.446;-1.930;2022-11-04T02:12:11;17.50;;;6.44;;
60641;SDS011;46837;52.446;-1.930;2022-11-04T02:13:07;11.46;;;5.64;;
60641;SDS011;46837;52.446;-1.930;2022-11-04T02:14:07;20.84;;;6.46;;
60641;SDS011;46837;52.446;-1.930;2022-11-04T02:15:07;17.28;;;6.34;;
60641;SDS011;46837;52.446;-1.930;2022-11-04T02:21:12;13.86;;;5.76;;
60641;SDS011;46837;52.446;-1.930;2022-11-04T02:28:14;16.30;;;5.76;;
60641;SDS011;46837;52.446;-1.930;2022-11-04T02:30:08;16.46;;;5.64;;
60641;SDS011;46837;52.446;-1.930;2022-11-04T02:35:09;18.52;;;5.90;;
60641;SDS011;46837;52.446;-1.930;2022-11-04T02:36:14;20.62;;;6.28;;
60641;SDS011;46837;52.446;-1.930;2022-11-04T02:37:52;20.84;;;5.64;;
60641;SDS011;46837;52.446;-1.930;2022-11-04T02:40:10;13.94;;;5.74;;
60641;SDS011;46837;52.446;-1.930;2022-11-04T02:42:14;19.20;;;6.82;;
60641;SDS011;46837;52.446;-1.930;2022-11-04T02:45:11;19.30;;;6.14;;
60641;SDS011;46837;52.446;-1.930;2022-11-04T02:48:09;17.14;;;5.60;;
60641;SDS011;46837;52.446;-1.930;2022-11-04T02:49:11;19.48;;;6.92;;
60641;SDS011;46837;52.446;-1.930;2022-11-04T02:50:08;17.28;;;5.88;;
60641;SDS011;46837;52.446;-1.930;2022-11-04T02:52:07;17.12;;;5.68;;
60641;SDS011;46837;52.446;-1.930;2022-11-04T02:54:10;21.58;;;5.94;;
60641;SDS011;46837;52.446;-1.930;2022-11-04T02:56:07;18.46;;;6.54;;
60641;SDS011;46837;52.446;-1.930;2022-11-04T02:57:07;17.14;;;5.88;;
60641;SDS011;46837;52.446;-1.930;2022-11-04T02:58:08;19.56;;;5.56;;
60641;SDS011;46837;52.446;-1.930;2022-11-04T02:59:08;13.56;;;6.72;;
60641;SDS011;46837;52.446;-1.930;2022-11-04T03:00:07;19.42;;;6.68;;
60641;SDS011;46837;52.446;-1.930;2022-11-04T03:01:07;21.94;;;6.06;;
60641;SDS011;46837;52.446;-1.930;2022-11-04T03:02:10;24.92;;;6.52;;
60641;SDS011;46837;52.446;-1.930;2022-11-04T03:03:10;17.96;;;6.54;;
60641;SDS011;46837;52.446;-1.930;2022-11-04T03:05:08;25.88;;;6.40;;
60641;SDS011;46837;52.446;-1.930;2022-11-04T03:06:07;16.66;;;6.32;;
60641;SDS011;46837;52.446;-1.930;2022-11-04T03:07:07;14.50;;;6.00;;
60641;SDS011;46837;52.446;-1.930;2022-11-04T03:08:21;26.00;;;5.82;;
60641;SDS011;46837;52.446;-1.930;2022-11-04T03:09:07;15.50;;;5.50;;
60641;SDS011;46837;52.446;-1.930;2022-11-04T03:10:07;15.98;;;6.02;;
60641;SDS011;46837;52.446;-1.930;2022-11-04T03:11:09;11.96;;;5.16;;
60641;SDS011;46837;52.446;-1.930;2022-11-04T03:12:08;13.50;;;6.02;;
60641;SDS011;46837;52.446;-1.930;2022-11-04T03:14:09;21.18;;;7.18;;
60641;SDS011;46837;52.446;-1.930;2022-11-04T03:15:08;12.64;;;5.24;;
60641;SDS011;46837;52.446;-1.930;2022-11-04T03:16:09;17.02;;;5.38;;
60641;SDS011;46837;52.446;-1.930;2022-11-04T03:18:14;17.40;;;5.30;;
60641;SDS011;46837;52.446;-1.930;2022-11-04T03:20:17;19.52;;;6.04;;
60641;SDS011;46837;52.446;-1.930;2022-11-04T03:21:08;21.68;;;5.88;;
60641;SDS011;46837;52.446;-1.930;2022-11-04T03:22:10;15.20;;;5.74;;
60641;SDS011;46837;52.446;-1.930;2022-11-04T03:23:07;20.76;;;6.70;;
60641;SDS011;46837;52.446;-1.930;2022-11-04T03:24:07;21.94;;;6.28;;
60641;SDS011;46837;52.446;-1.930;2022-11-04T03:25:07;15.74;;;5.40;;
60641;SDS011;46837;52.446;-1.930;2022-11-04T03:26:51;17.42;;;6.66;;
60641;SDS011;46837;52.446;-1.930;2022-11-04T03:29:11;18.96;;;5.98;;
60641;SDS011;46837;52.446;-1.930;2022-11-04T03:30:11;24.18;;;6.56;;
60641;SDS011;46837;52.446;-1.930;2022-11-04T03:31:07;21.12;;;6.32;;
60641;SDS011;46837;52.446;-1.930;2022-11-04T03:34:07;20.42;;;6.92;;
60641;SDS011;46837;52.446;-1.930;2022-11-04T03:35:07;20.94;;;6.20;;
60641;SDS011;46837;52.446;-1.930;2022-11-04T03:36:07;17.46;;;6.22;;
60641;SDS011;46837;52.446;-1.930;2022-11-04T03:37:07;16.26;;;5.52;;
60641;SDS011;46837;52.446;-1.930;2022-11-04T03:38:07;21.40;;;7.38;;
60641;SDS011;46837;52.446;-1.930;2022-11-04T03:39:07;13.20;;;6.22;;
60641;SDS011;46837;52.446;-1.930;2022-11-04T03:40:07;23.92;;;7.30;;
60641;SDS011;46837;52.446;-1.930;2022-11-04T03:41:12;15.58;;;5.58;;
60641;SDS011;46837;52.446;-1.930;2022-11-04T03:42:11;18.78;;;6.96;;
60641;SDS011;46837;52.446;-1.930;2022-11-04T03:43:10;20.00;;;7.10;;
60641;SDS011;46837;52.446;-1.930;2022-11-04T03:44:07;17.94;;;5.78;;
60641;SDS011;46837;52.446;-1.930;2022-11-04T03:45:07;17.18;;;7.18;;
60641;SDS011;46837;52.446;-1.930;2022-11-04T03:46:07;19.92;;;5.32;;
60641;SDS011;46837;52.446;-1.930;2022-11-04T03:47:07;16.82;;;5.76;;
60641;SDS011;46837;52.446;-1.930;2022-11-04T03:48:07;24.94;;;7.00;;
60641;SDS011;46837;52.446;-1.930;2022-11-04T03:49:07;18.78;;;6.02;;
60641;SDS011;46837;52.446;-1.930;2022-11-04T03:50:08;19.56;;;6.40;;
60641;SDS011;46837;52.446;-1.930;2022-11-04T03:51:07;18.36;;;7.02;;
60641;SDS011;46837;52.446;-1.930;2022-11-04T03:52:07;20.60;;;7.28;;
60641;SDS011;46837;52.446;-1.930;2022-11-04T03:53:07;23.40;;;7.44;;
60641;SDS011;46837;52.446;-1.930;2022-11-04T03:54:07;12.02;;;6.16;;
60641;SDS011;46837;52.446;-1.930;2022-11-04T03:55:07;17.46;;;7.20;;
60641;SDS011;46837;52.446;-1.930;2022-11-04T03:57:11;22.26;;;7.50;;
60641;SDS011;46837;52.446;-1.930;2022-11-04T03:58:07;19.44;;;7.22;;
60641;SDS011;46837;52.446;-1.930;2022-11-04T03:59:12;21.42;;;9.06;;
60641;SDS011;46837;52.446;-1.930;2022-11-04T04:00:11;19.38;;;7.02;;
60641;SDS011;46837;52.446;-1.930;2022-11-04T04:01:17;18.54;;;7.42;;
60641;SDS011;46837;52.446;-1.930;2022-11-04T04:05:11;23.08;;;8.28;;
60641;SDS011;46837;52.446;-1.930;2022-11-04T04:06:12;30.88;;;8.62;;
60641;SDS011;46837;52.446;-1.930;2022-11-04T04:07:11;33.18;;;9.44;;
60641;SDS011;46837;52.446;-1.930;2022-11-04T04:09:13;25.32;;;8.12;;
60641;SDS011;46837;52.446;-1.930;2022-11-04T04:10:16;26.62;;;8.06;;
60641;SDS011;46837;52.446;-1.930;2022-11-04T04:12:10;26.32;;;9.26;;
60641;SDS011;46837;52.446;-1.930;2022-11-04T04:13:10;16.32;;;8.10;;
60641;SDS011;46837;52.446;-1.930;2022-11-04T04:14:16;18.48;;;7.92;;
60641;SDS011;46837;52.446;-1.930;2022-11-04T04:15:08;20.12;;;7.22;;
60641;SDS011;46837;52.446;-1.930;2022-11-04T04:16:11;23.76;;;8.00;;
60641;SDS011;46837;52.446;-1.930;2022-11-04T04:18:08;21.38;;;9.06;;
60641;SDS011;46837;52.446;-1.930;2022-11-04T04:19:11;21.14;;;7.90;;
60641;SDS011;46837;52.446;-1.930;2022-11-04T04:20:11;20.40;;;7.48;;
60641;SDS011;46837;52.446;-1.930;2022-11-04T04:21:07;20.14;;;7.82;;
60641;SDS011;46837;52.446;-1.930;2022-11-04T04:22:11;17.02;;;8.44;;
60641;SDS011;46837;52.446;-1.930;2022-11-04T04:23:16;18.04;;;7.40;;
60641;SDS011;46837;52.446;-1.930;2022-11-04T04:24:11;24.18;;;8.24;;
60641;SDS011;46837;52.446;-1.930;2022-11-04T04:25:11;22.60;;;9.10;;
60641;SDS011;46837;52.446;-1.930;2022-11-04T04:26:11;24.10;;;7.36;;
60641;SDS011;46837;52.446;-1.930;2022-11-04T04:27:11;23.16;;;8.10;;
60641;SDS011;46837;52.446;-1.930;2022-11-04T04:28:07;16.96;;;7.44;;
60641;SDS011;46837;52.446;-1.930;2022-11-04T04:29:07;21.20;;;8.20;;
60641;SDS011;46837;52.446;-1.930;2022-11-04T04:30:11;18.38;;;8.12;;
60641;SDS011;46837;52.446;-1.930;2022-11-04T04:31:07;20.96;;;7.90;;
60641;SDS011;46837;52.446;-1.930;2022-11-04T04:32:07;15.48;;;7.56;;
60641;SDS011;46837;52.446;-1.930;2022-11-04T04:33:08;12.84;;;7.42;;
60641;SDS011;46837;52.446;-1.930;2022-11-04T04:34:07;18.38;;;7.20;;
60641;SDS011;46837;52.446;-1.930;2022-11-04T04:35:11;16.34;;;7.92;;
60641;SDS011;46837;52.446;-1.930;2022-11-04T04:36:07;14.22;;;9.52;;
60641;SDS011;46837;52.446;-1.930;2022-11-04T04:38:15;27.76;;;8.58;;
60641;SDS011;46837;52.446;-1.930;2022-11-04T04:39:11;13.98;;;6.56;;
60641;SDS011;46837;52.446;-1.930;2022-11-04T04:40:11;16.42;;;7.78;;
60641;SDS011;46837;52.446;-1.930;2022-11-04T04:42:11;22.90;;;8.62;;
60641;SDS011;46837;52.446;-1.930;2022-11-04T04:43:13;18.20;;;8.24;;
60641;SDS011;46837;52.446;-1.930;2022-11-04T04:44:13;26.18;;;7.92;;
60641;SDS011;46837;52.446;-1.930;2022-11-04T04:45:07;16.94;;;7.36;;
60641;SDS011;46837;52.446;-1.930;2022-11-04T04:46:07;19.18;;;7.08;;
60641;SDS011;46837;52.446;-1.930;2022-11-04T04:47:07;19.40;;;8.30;;
60641;SDS011;46837;52.446;-1.930;2022-11-04T04:48:07;25.16;;;7.88;;
60641;SDS011;46837;52.446;-1.930;2022-11-04T04:49:07;19.90;;;7.04;;
60641;SDS011;46837;52.446;-1.930;2022-11-04T04:50:07;20.54;;;6.90;;
60641;SDS011;46837;52.446;-1.930;2022-11-04T04:51:07;18.22;;;7.68;;
60641;SDS011;46837;52.446;-1.930;2022-11-04T04:52:07;18.74;;;7.14;;
60641;SDS011;46837;52.446;-1.930;2022-11-04T04:53:07;14.34;;;6.90;;
60641;SDS011;46837;52.446;-1.930;2022-11-04T04:54:07;23.98;;;8.30;;
60641;SDS011;46837;52.446;-1.930;2022-11-04T04:55:07;18.86;;;6.98;;
60641;SDS011;46837;52.446;-1.930;2022-11-04T04:56:07;21.12;;;8.50;;
60641;SDS011;46837;52.446;-1.930;2022-11-04T04:57:07;23.48;;;7.26;;
60641;SDS011;46837;52.446;-1.930;2022-11-04T04:58:07;18.44;;;7.94;;
60641;SDS011;46837;52.446;-1.930;2022-11-04T04:59:07;19.84;;;7.68;;
60641;SDS011;46837;52.446;-1.930;2022-11-04T05:00:07;16.08;;;7.26;;
60641;SDS011;46837;52.446;-1.930;2022-11-04T05:01:07;16.96;;;6.84;;
60641;SDS011;46837;52.446;-1.930;2022-11-04T05:02:07;23.88;;;7.86;;
60641;SDS011;46837;52.446;-1.930;2022-11-04T05:03:07;20.20;;;7.60;;
60641;SDS011;46837;52.446;-1.930;2022-11-04T05:04:07;18.26;;;7.62;;
60641;SDS011;46837;52.446;-1.930;2022-11-04T05:05:07;21.66;;;8.84;;
60641;SDS011;46837;52.446;-1.930;2022-11-04T05:06:07;21.92;;;8.98;;
60641;SDS011;46837;52.446;-1.930;2022-11-04T05:07:07;17.90;;;8.28;;
60641;SDS011;46837;52.446;-1.930;2022-11-04T05:08:07;18.74;;;8.02;;
60641;SDS011;46837;52.446;-1.930;2022-11-04T05:09:07;19.64;;;8.66;;
60641;SDS011;46837;52.446;-1.930;2022-11-04T05:10:07;24.94;;;8.36;;
60641;SDS011;46837;52.446;-1.930;2022-11-04T05:11:07;17.66;;;8.16;;
60641;SDS011;46837;52.446;-1.930;2022-11-04T05:12:07;27.32;;;9.70;;
60641;SDS011;46837;52.446;-1.930;2022-11-04T05:13:11;30.56;;;9.12;;
60641;SDS011;46837;52.446;-1.930;2022-11-04T05:14:07;13.42;;;8.84;;
60641;SDS011;46837;52.446;-1.930;2022-11-04T05:15:07;26.04;;;10.12;;
60641;SDS011;46837;52.446;-1.930;2022-11-04T05:16:08;30.90;;;9.88;;
60641;SDS011;46837;52.446;-1.930;2022-11-04T05:17:07;18.36;;;8.56;;
60641;SDS011;46837;52.446;-1.930;2022-11-04T05:18:07;21.60;;;9.58;;
60641;SDS011;46837;52.446;-1.930;2022-11-04T05:19:07;26.34;;;11.10;;
60641;SDS011;46837;52.446;-1.930;2022-11-04T05:20:07;28.52;;;8.44;;
60641;SDS011;46837;52.446;-1.930;2022-11-04T05:21:08;21.00;;;8.44;;
60641;SDS011;46837;52.446;-1.930;2022-11-04T05:22:07;27.42;;;9.66;;
60641;SDS011;46837;52.446;-1.930;2022-11-04T05:23:07;24.86;;;10.20;;
60641;SDS011;46837;52.446;-1.930;2022-11-04T05:24:07;22.38;;;9.36;;
60641;SDS011;46837;52.446;-1.930;2022-11-04T05:25:07;18.12;;;8.52;;
60641;SDS011;46837;52.446;-1.930;2022-11-04T05:26:07;24.24;;;9.06;;
60641;SDS011;46837;52.446;-1.930;2022-11-04T05:27:07;20.72;;;10.98;;
60641;SDS011;46837;52.446;-1.930;2022-11-04T05:28:07;22.34;;;10.66;;
60641;SDS011;46837;52.446;-1.930;2022-11-04T05:29:07;25.04;;;11.00;;
60641;SDS011;46837;52.446;-1.930;2022-11-04T05:30:07;22.96;;;9.38;;
60641;SDS011;46837;52.446;-1.930;2022-11-04T05:31:07;16.90;;;9.08;;
60641;SDS011;46837;52.446;-1.930;2022-11-04T05:32:07;18.74;;;9.20;;
60641;SDS011;46837;52.446;-1.930;2022-11-04T05:33:07;15.52;;;9.54;;
60641;SDS011;46837;52.446;-1.930;2022-11-04T05:34:09;21.06;;;11.26;;
60641;SDS011;46837;52.446;-1.930;2022-11-04T05:35:07;21.76;;;9.74;;
60641;SDS011;46837;52.446;-1.930;2022-11-04T05:36:08;20.72;;;10.14;;
60641;SDS011;46837;52.446;-1.930;2022-11-04T05:37:07;21.44;;;10.08;;
60641;SDS011;46837;52.446;-1.930;2022-11-04T05:38:07;17.46;;;9.40;;
60641;SDS011;46837;52.446;-1.930;2022-11-04T05:39:07;15.40;;;8.96;;
60641;SDS011;46837;52.446;-1.930;2022-11-04T05:40:07;18.76;;;9.90;;
60641;SDS011;46837;52.446;-1.930;2022-11-04T05:41:07;29.86;;;10.40;;
60641;SDS011;46837;52.446;-1.930;2022-11-04T05:42:07;25.24;;;10.66;;
60641;SDS011;46837;52.446;-1.930;2022-11-04T05:43:07;24.92;;;9.08;;
60641;SDS011;46837;52.446;-1.930;2022-11-04T05:44:08;18.56;;;8.36;;
60641;SDS011;46837;52.446;-1.930;2022-11-04T05:45:07;18.92;;;9.78;;
60641;SDS011;46837;52.446;-1.930;2022-11-04T05:46:07;19.38;;;10.34;;
60641;SDS011;46837;52.446;-1.930;2022-11-04T05:47:07;19.62;;;9.44;;
60641;SDS011;46837;52.446;-1.930;2022-11-04T05:48:07;29.80;;;9.36;;
60641;SDS011;46837;52.446;-1.930;2022-11-04T05:49:07;21.02;;;9.58;;
60641;SDS011;46837;52.446;-1.930;2022-11-04T05:50:07;18.86;;;9.06;;
60641;SDS011;46837;52.446;-1.930;2022-11-04T05:51:07;20.86;;;9.36;;
60641;SDS011;46837;52.446;-1.930;2022-11-04T05:52:07;21.24;;;9.18;;
60641;SDS011;46837;52.446;-1.930;2022-11-04T05:53:07;24.52;;;10.58;;
60641;SDS011;46837;52.446;-1.930;2022-11-04T05:54:07;20.66;;;8.54;;
60641;SDS011;46837;52.446;-1.930;2022-11-04T05:55:07;24.80;;;9.52;;
60641;SDS011;46837;52.446;-1.930;2022-11-04T05:56:07;25.82;;;9.28;;
60641;SDS011;46837;52.446;-1.930;2022-11-04T05:57:07;23.70;;;8.98;;
60641;SDS011;46837;52.446;-1.930;2022-11-04T05:58:07;19.98;;;9.58;;
60641;SDS011;46837;52.446;-1.930;2022-11-04T05:59:07;23.60;;;9.92;;
60641;SDS011;46837;52.446;-1.930;2022-11-04T06:00:11;23.84;;;10.58;;
60641;SDS011;46837;52.446;-1.930;2022-11-04T06:01:48;29.14;;;10.68;;
60641;SDS011;46837;52.446;-1.930;2022-11-04T06:02:07;23.02;;;8.54;;
60641;SDS011;46837;52.446;-1.930;2022-11-04T06:03:07;22.98;;;10.42;;
60641;SDS011;46837;52.446;-1.930;2022-11-04T06:04:09;18.88;;;9.12;;
60641;SDS011;46837;52.446;-1.930;2022-11-04T06:05:07;19.44;;;10.34;;
60641;SDS011;46837;52.446;-1.930;2022-11-04T06:06:07;22.16;;;8.22;;
60641;SDS011;46837;52.446;-1.930;2022-11-04T06:07:07;25.20;;;10.52;;
60641;SDS011;46837;52.446;-1.930;2022-11-04T06:08:07;25.74;;;10.04;;
60641;SDS011;46837;52.446;-1.930;2022-11-04T06:09:07;25.08;;;8.84;;
60641;SDS011;46837;52.446;-1.930;2022-11-04T06:10:07;22.92;;;9.32;;
60641;SDS011;46837;52.446;-1.930;2022-11-04T06:11:07;23.82;;;9.78;;
60641;SDS011;46837;52.446;-1.930;2022-11-04T06:12:11;19.52;;;8.62;;
60641;SDS011;46837;52.446;-1.930;2022-11-04T06:13:07;19.12;;;9.00;;
60641;SDS011;46837;52.446;-1.930;2022-11-04T06:14:07;19.00;;;8.76;;
60641;SDS011;46837;52.446;-1.930;2022-11-04T06:15:07;28.34;;;9.26;;
60641;SDS011;46837;52.446;-1.930;2022-11-04T06:16:07;19.80;;;8.58;;
60641;SDS011;46837;52.446;-1.930;2022-11-04T06:17:07;20.94;;;9.54;;
60641;SDS011;46837;52.446;-1.930;2022-11-04T06:18:07;32.26;;;8.36;;
60641;SDS011;46837;52.446;-1.930;2022-11-04T06:19:07;18.88;;;8.20;;
60641;SDS011;46837;52.446;-1.930;2022-11-04T06:20:07;32.12;;;11.02;;
60641;SDS011;46837;52.446;-1.930;2022-11-04T06:21:17;21.42;;;8.32;;
60641;SDS011;46837;52.446;-1.930;2022-11-04T06:22:08;15.44;;;8.40;;
60641;SDS011;46837;52.446;-1.930;2022-11-04T06:23:07;15.20;;;8.00;;
60641;SDS011;46837;52.446;-1.930;2022-11-04T06:24:07;18.84;;;8.78;;
60641;SDS011;46837;52.446;-1.930;2022-11-04T06:25:07;29.48;;;9.62;;
60641;SDS011;46837;52.446;-1.930;2022-11-04T06:26:07;19.52;;;8.16;;
60641;SDS011;46837;52.446;-1.930;2022-11-04T06:27:07;20.86;;;8.68;;
60641;SDS011;46837;52.446;-1.930;2022-11-04T06:28:07;23.24;;;8.26;;
60641;SDS011;46837;52.446;-1.930;2022-11-04T06:29:07;17.30;;;8.22;;
60641;SDS011;46837;52.446;-1.930;2022-11-04T06:30:07;22.88;;;9.10;;
60641;SDS011;46837;52.446;-1.930;2022-11-04T06:31:08;20.76;;;8.40;;
60641;SDS011;46837;52.446;-1.930;2022-11-04T06:32:07;24.96;;;9.16;;
60641;SDS011;46837;52.446;-1.930;2022-11-04T06:33:07;24.22;;;8.06;;
60641;SDS011;46837;52.446;-1.930;2022-11-04T06:34:07;28.44;;;8.52;;
60641;SDS011;46837;52.446;-1.930;2022-11-04T06:35:08;20.84;;;8.34;;
60641;SDS011;46837;52.446;-1.930;2022-11-04T06:36:07;18.80;;;9.76;;
60641;SDS011;46837;52.446;-1.930;2022-11-04T06:37:07;25.06;;;9.24;;